Time;durP1;ratioP1;P1;durP2;ratioP2;P2;SDS_P1;SDS_P2;PMS_P1;PMS_P2;Temp;Humidity;BMP_temperature;BMP_pressure;BME280_temperature;BME280_humidity;BME280_pressure;Samples;Min_cycle;Max_cycle;Signal;HPM_P1;HPM_P2
2023/01/30 05:58:34;;;;;;;62.00;25.65;;;-3.00;99.90;;;;;;7576945;19;20370;-80
2023/01/30 06:01:09;;;;;;;56.45;21.90;;;-3.00;99.90;;;;;;7595546;19;20108;-79
2023/01/30 06:03:42;;;;;;;60.25;22.55;;;-2.90;99.90;;;;;;7578163;19;20018;-79
2023/01/30 06:06:14;;;;;;;58.22;24.85;;;-2.80;99.90;;;;;;7563911;19;20230;-80
2023/01/30 06:08:51;;;;;;;59.08;24.05;;;-2.80;99.90;;;;;;7552736;19;20625;-77
2023/01/30 06:11:23;;;;;;;57.60;22.42;;;-2.70;99.90;;;;;;7570316;19;20821;-78
2023/01/30 06:13:56;;;;;;;61.55;24.33;;;-2.70;99.90;;;;;;7601840;19;20021;-79
2023/01/30 06:16:27;;;;;;;54.50;24.10;;;-2.70;99.90;;;;;;7591537;19;20044;-77
2023/01/30 06:18:59;;;;;;;45.22;17.10;;;-2.70;99.90;;;;;;7566565;19;20039;-77
2023/01/30 06:21:31;;;;;;;53.50;22.08;;;-2.70;99.90;;;;;;7562238;19;20007;-79
2023/01/30 06:24:04;;;;;;;49.58;19.13;;;-2.50;99.90;;;;;;7593960;19;20383;-78
2023/01/30 06:26:36;;;;;;;60.47;26.38;;;-2.50;99.90;;;;;;7573261;19;20025;-78
2023/01/30 06:29:08;;;;;;;59.20;22.92;;;-2.50;99.90;;;;;;7583183;19;20026;-78
2023/01/30 06:31:41;;;;;;;52.08;23.48;;;-2.50;99.90;;;;;;7594817;19;20010;-78
2023/01/30 06:34:13;;;;;;;56.05;22.85;;;-2.50;99.90;;;;;;7589166;19;20002;-76
2023/01/30 06:36:46;;;;;;;51.70;20.15;;;-2.50;99.90;;;;;;7586244;19;20025;-82
2023/01/30 06:39:18;;;;;;;50.80;22.70;;;-2.40;99.90;;;;;;7580560;19;20081;-81
2023/01/30 06:41:50;;;;;;;40.67;15.75;;;-2.30;99.90;;;;;;7579510;19;20010;-76
2023/01/30 06:44:22;;;;;;;50.70;19.73;;;-2.30;99.90;;;;;;7605704;19;20014;-77
2023/01/30 06:46:54;;;;;;;33.60;14.63;;;-2.30;99.90;;;;;;7609712;19;20070;-77
2023/01/30 06:49:26;;;;;;;42.60;15.52;;;-2.30;99.90;;;;;;7602731;19;20010;-77
2023/01/30 15:34:20;;;;;;;12.40;5.63;;;3.00;99.90;;;;;;7625077;19;20398;-72
2023/01/30 15:36:53;;;;;;;13.75;6.70;;;2.80;99.90;;;;;;7598344;19;20653;-73
2023/01/30 15:39:27;;;;;;;7.95;4.93;;;2.80;99.90;;;;;;7574951;19;20914;-73
2023/01/30 15:42:06;;;;;;;10.75;5.63;;;2.90;99.90;;;;;;7599941;19;20025;-73
2023/01/30 15:44:55;;;;;;;12.13;5.68;;;3.00;99.90;;;;;;7597929;19;20051;-73
2023/01/30 15:47:49;;;;;;;9.15;5.75;;;3.00;99.90;;;;;;7554759;19;20966;-73
2023/01/30 15:50:22;;;;;;;13.15;5.55;;;3.10;99.90;;;;;;7593962;19;20624;-73
2023/01/30 15:52:55;;;;;;;13.85;5.60;;;3.10;99.90;;;;;;7588812;19;20909;-73
2023/01/30 15:55:37;;;;;;;14.90;6.78;;;3.00;99.90;;;;;;7597644;19;20811;-73
2023/01/30 15:58:17;;;;;;;15.20;7.15;;;3.10;99.90;;;;;;7603541;19;20016;-73
2023/01/30 16:00:53;;;;;;;11.85;6.55;;;3.10;99.90;;;;;;7604918;19;20020;-72
2023/01/30 16:03:30;;;;;;;12.88;6.65;;;3.10;99.90;;;;;;7607915;19;20033;-73
2023/01/30 16:06:02;;;;;;;10.68;5.68;;;3.20;99.90;;;;;;7615247;19;20011;-73
2023/01/30 16:08:35;;;;;;;15.45;7.47;;;3.20;99.90;;;;;;7611863;19;20996;-72
2023/01/30 16:11:09;;;;;;;14.93;7.22;;;3.10;99.90;;;;;;7611563;19;20037;-72
2023/01/30 16:13:41;;;;;;;14.65;8.05;;;3.10;99.90;;;;;;7607707;19;20011;-73
2023/01/30 16:16:18;;;;;;;15.45;6.90;;;3.10;99.90;;;;;;7596659;19;20014;-72
2023/01/30 16:18:54;;;;;;;18.55;8.43;;;3.00;99.90;;;;;;7620871;19;21052;-74
2023/01/30 16:21:41;;;;;;;13.95;7.50;;;3.00;99.90;;;;;;7608143;19;20029;-72
2023/01/30 16:24:21;;;;;;;15.18;7.78;;;3.00;99.90;;;;;;7619309;19;20026;-73
2023/01/30 16:27:01;;;;;;;16.00;7.68;;;2.90;99.90;;;;;;7628707;19;20549;-74
2023/01/30 16:29:52;;;;;;;18.23;8.68;;;2.90;99.90;;;;;;7582902;19;20105;-74
2023/01/30 16:32:30;;;;;;;18.15;9.05;;;2.90;99.90;;;;;;7589460;19;20022;-73
2023/01/30 16:35:24;;;;;;;18.45;8.52;;;2.90;99.90;;;;;;7574308;19;20010;-73
2023/01/30 16:38:00;;;;;;;17.08;8.70;;;2.90;99.90;;;;;;7593086;19;20018;-75
2023/01/30 16:40:44;;;;;;;15.48;8.13;;;2.80;99.90;;;;;;7569405;19;20012;-72
2023/01/30 16:43:23;;;;;;;18.02;7.95;;;2.80;99.90;;;;;;7548039;19;20025;-73
2023/01/30 16:46:17;;;;;;;18.33;8.43;;;2.90;99.90;;;;;;6548975;19;10001228;-72
2023/01/30 16:48:50;;;;;;;15.82;8.13;;;2.80;99.90;;;;;;7047574;19;10002018;-73
2023/01/30 16:51:23;;;;;;;17.43;8.97;;;2.80;99.90;;;;;;7529410;19;20019;-73
2023/01/30 16:54:02;;;;;;;18.25;8.23;;;2.70;99.90;;;;;;7533936;19;20023;-72
2023/01/30 16:56:34;;;;;;;18.27;8.23;;;2.60;99.90;;;;;;7555026;19;20030;-71
2023/01/30 16:59:18;;;;;;;14.88;7.90;;;2.60;99.90;;;;;;7553694;19;20032;-73
2023/01/30 17:01:54;;;;;;;16.92;8.75;;;2.70;99.90;;;;;;7571360;19;20018;-72
2023/01/30 17:04:32;;;;;;;16.05;8.43;;;2.70;99.90;;;;;;7556579;19;20029;-73
2023/01/30 17:07:04;;;;;;;15.38;7.75;;;2.60;99.90;;;;;;7554328;19;20668;-74
2023/01/30 17:09:40;;;;;;;16.23;8.27;;;2.50;99.90;;;;;;7574352;19;20024;-74
2023/01/30 17:12:35;;;;;;;16.15;7.43;;;2.50;99.90;;;;;;7550815;19;20014;-72
2023/01/30 17:15:08;;;;;;;16.58;8.25;;;2.50;99.90;;;;;;7590007;19;20051;-72
2023/01/30 17:17:41;;;;;;;16.60;8.00;;;2.40;99.90;;;;;;7573223;19;20018;-72
2023/01/30 17:20:17;;;;;;;16.08;8.77;;;2.40;99.90;;;;;;7556708;19;20036;-73
2023/01/30 17:22:56;;;;;;;18.17;8.50;;;2.40;99.90;;;;;;7579828;19;20015;-72
2023/01/30 17:25:36;;;;;;;19.10;9.15;;;2.40;99.90;;;;;;7580363;19;20430;-72
2023/01/30 17:28:20;;;;;;;18.02;8.63;;;2.40;99.90;;;;;;7543736;19;20073;-73
2023/01/30 17:30:53;;;;;;;18.30;9.45;;;2.50;99.90;;;;;;7517042;19;20018;-73
2023/01/30 17:33:25;;;;;;;19.25;10.00;;;2.50;99.90;;;;;;7559714;19;21236;-73
2023/01/30 17:36:00;;;;;;;20.00;9.02;;;2.50;99.90;;;;;;7549764;19;20109;-72
2023/01/30 17:38:32;;;;;;;23.25;9.77;;;2.50;99.90;;;;;;7568709;19;20022;-73
2023/01/30 17:41:07;;;;;;;20.38;9.85;;;2.50;99.90;;;;;;7549161;19;21081;-72
2023/01/30 17:43:39;;;;;;;20.98;8.48;;;2.50;99.90;;;;;;7543951;19;20473;-72
2023/01/30 17:46:12;;;;;;;24.98;9.82;;;2.60;99.90;;;;;;7562171;19;20050;-72
2023/01/30 17:48:44;;;;;;;22.75;10.10;;;2.60;99.90;;;;;;7542051;19;21095;-72
2023/01/30 17:51:16;;;;;;;18.98;9.60;;;2.50;99.90;;;;;;7540349;19;20401;-72
2023/01/30 17:53:48;;;;;;;19.77;9.95;;;2.60;99.90;;;;;;7553278;19;20003;-73
2023/01/30 17:56:41;;;;;;;17.50;9.18;;;2.60;99.90;;;;;;7520670;19;20122;-72
2023/01/30 17:59:16;;;;;;;19.33;9.57;;;2.50;99.90;;;;;;7549657;19;20018;-72
2023/01/30 18:01:50;;;;;;;17.67;9.30;;;2.60;99.90;;;;;;7578343;19;21071;-73
2023/01/30 18:04:22;;;;;;;19.17;9.65;;;2.50;99.90;;;;;;7578554;19;20011;-72
2023/01/30 18:07:02;;;;;;;18.45;9.02;;;2.50;99.90;;;;;;7539236;19;20022;-73
2023/01/30 18:09:34;;;;;;;16.73;8.15;;;2.50;99.90;;;;;;7569092;19;20022;-72
2023/01/30 18:12:07;;;;;;;17.17;8.93;;;2.50;99.90;;;;;;7514930;19;20025;-73
2023/01/30 18:14:39;;;;;;;19.92;8.77;;;2.50;99.90;;;;;;7542759;19;20011;-71
2023/01/30 18:17:12;;;;;;;18.33;8.73;;;2.40;99.90;;;;;;7548100;19;20048;-74
2023/01/30 18:19:44;;;;;;;16.33;8.65;;;2.40;99.90;;;;;;7557987;19;20018;-73
2023/01/30 18:22:17;;;;;;;17.52;9.23;;;2.50;99.90;;;;;;7539999;19;20787;-73
2023/01/30 18:24:49;;;;;;;24.10;10.40;;;2.50;99.90;;;;;;7556450;19;20077;-73
2023/01/30 18:27:21;;;;;;;17.38;9.57;;;2.60;99.90;;;;;;7560322;19;20053;-72
2023/01/30 18:29:54;;;;;;;18.88;9.18;;;2.60;99.90;;;;;;7568563;19;20029;-73
2023/01/30 18:32:26;;;;;;;19.08;9.40;;;2.60;99.90;;;;;;7557528;19;20499;-73
2023/01/30 18:34:58;;;;;;;18.02;9.23;;;2.50;99.90;;;;;;7559377;19;20021;-73
2023/01/30 18:37:30;;;;;;;22.15;10.13;;;2.50;99.90;;;;;;7567938;19;20078;-73
2023/01/30 18:40:02;;;;;;;19.77;10.25;;;2.60;99.90;;;;;;7510191;19;20029;-73
2023/01/30 18:42:35;;;;;;;18.35;8.98;;;2.50;99.90;;;;;;7522861;19;20014;-73
2023/01/30 18:45:08;;;;;;;20.17;9.32;;;2.50;99.90;;;;;;7546329;19;20011;-73
2023/01/30 18:47:40;;;;;;;19.60;9.20;;;2.50;99.90;;;;;;7514576;19;20026;-73
2023/01/30 18:50:12;;;;;;;16.88;8.50;;;2.50;99.90;;;;;;7541011;19;20339;-72
2023/01/30 18:52:46;;;;;;;18.55;8.00;;;2.50;99.90;;;;;;7565727;19;20035;-72
2023/01/30 18:55:19;;;;;;;16.88;8.02;;;2.50;99.90;;;;;;7572891;19;20022;-72
2023/01/30 18:57:51;;;;;;;16.73;9.52;;;2.50;99.90;;;;;;7547690;19;20019;-72
2023/01/30 19:00:24;;;;;;;19.90;9.55;;;2.40;99.90;;;;;;7572226;19;20015;-72
2023/01/30 19:02:56;;;;;;;20.17;10.93;;;2.40;99.90;;;;;;7579581;19;20538;-72
2023/01/30 19:05:29;;;;;;;19.73;9.90;;;2.50;99.90;;;;;;7545725;19;20048;-73
2023/01/30 19:08:01;;;;;;;21.07;11.17;;;2.50;99.90;;;;;;7572321;19;20344;-72
2023/01/30 19:10:33;;;;;;;21.13;9.45;;;2.50;99.90;;;;;;7536370;19;20278;-72
2023/01/30 19:16:02;;;;;;;16.77;8.38;;;2.50;99.90;;;;;;7539328;19;20022;-72
2023/01/30 19:18:35;;;;;;;20.55;10.40;;;2.60;99.90;;;;;;7565677;19;20400;-72
2023/01/30 19:21:07;;;;;;;23.20;10.50;;;2.60;99.90;;;;;;7554606;19;20026;-72
2023/01/30 19:23:39;;;;;;;17.95;8.52;;;2.60;99.90;;;;;;7554280;19;20011;-72
2023/01/30 19:26:11;;;;;;;21.45;8.75;;;2.60;99.90;;;;;;7558946;19;20048;-71
2023/01/30 19:28:44;;;;;;;21.33;10.15;;;2.60;99.90;;;;;;7548905;19;20010;-71
2023/01/30 19:31:21;;;;;;;21.63;10.45;;;2.60;99.90;;;;;;7548351;19;20014;-71
2023/01/30 19:33:57;;;;;;;20.80;9.85;;;2.60;99.90;;;;;;7560636;19;20015;-72
2023/01/30 19:36:31;;;;;;;20.45;10.60;;;2.60;99.90;;;;;;7537460;19;20015;-72
2023/01/30 19:39:04;;;;;;;19.67;8.30;;;2.60;99.90;;;;;;7544380;19;20056;-71
2023/01/30 19:41:37;;;;;;;21.30;9.48;;;2.60;99.90;;;;;;7561420;19;20931;-71
2023/01/30 19:44:10;;;;;;;18.37;8.33;;;2.60;99.90;;;;;;7548083;19;20014;-69
2023/01/30 19:46:43;;;;;;;19.25;8.70;;;2.70;99.90;;;;;;7540607;19;20026;-69
2023/01/30 19:49:15;;;;;;;15.50;7.88;;;2.60;99.90;;;;;;7541153;19;20030;-69
2023/01/30 19:51:47;;;;;;;17.17;9.23;;;2.60;99.90;;;;;;7556798;19;20022;-70
2023/01/30 19:54:19;;;;;;;18.42;8.63;;;2.60;99.90;;;;;;7553644;19;21240;-69
2023/01/30 19:56:52;;;;;;;15.23;7.53;;;2.60;99.90;;;;;;7553476;19;20010;-70
2023/01/30 19:59:24;;;;;;;16.98;7.65;;;2.60;99.90;;;;;;7552215;19;20023;-69
2023/01/30 20:01:57;;;;;;;15.05;7.63;;;2.60;99.90;;;;;;7527253;19;20363;-69
2023/01/30 20:04:29;;;;;;;16.83;8.77;;;2.60;99.90;;;;;;7533982;19;20020;-69
2023/01/30 20:07:01;;;;;;;17.10;7.45;;;2.60;99.90;;;;;;7545787;19;21613;-67
2023/01/30 20:09:34;;;;;;;17.45;7.15;;;2.60;99.90;;;;;;7556878;19;20050;-71
2023/01/30 20:12:06;;;;;;;19.52;7.93;;;2.50;99.90;;;;;;7559414;19;20450;-70
2023/01/30 20:14:38;;;;;;;18.70;9.43;;;2.30;99.90;;;;;;7547948;19;20011;-70
